Flight Track Log - Related Links

Times and Time Zones

All times are in EDT time to prevent confusion due to time zone crossing. See the CSN3231 flight status page for this flight to view local times or setup timezone preferences in your user account.

Time Position Orientation Groundspeed Altitude Reporting Facility
EDT Latitude Longitude Course Direction KTS MPH feet Rate Location/Type
Wed 07:21:32 PM 24.5962 111.1743 121° Southeast  Level Estimated
Wed 07:22:32 PM 24.5559 111.2469 121° Southeast  Level Estimated
Wed 07:23:32 PM 24.5155 111.3196 121° Southeast  Level Estimated
Wed 07:24:32 PM 24.4751 111.3922 121° Southeast  Level Estimated
Wed 07:25:32 PM 24.4347 111.4647 121° Southeast  Level Estimated
Wed 07:26:32 PM 24.3942 111.5372 122° Southeast  Level Estimated
Wed 07:27:32 PM 24.3537 111.6097 122° Southeast  Level Estimated
Wed 07:28:32 PM 24.3132 111.6821 122° Southeast  Level Estimated
Wed 07:29:32 PM 24.2726 111.7544 122° Southeast  Level Estimated
Wed 07:30:32 PM 24.2320 111.8268 122° Southeast  Level Estimated
Wed 07:31:32 PM 24.1914 111.8990 122° Southeast  Level Estimated
Wed 07:32:32 PM 24.1507 111.9712 122° Southeast  Level Estimated
Wed 07:33:32 PM 24.1100 112.0434 122° Southeast  Level Estimated
Wed 07:34:32 PM 24.0693 112.1155 122° Southeast  Level Estimated
Wed 07:35:32 PM 24.0285 112.1876 122° Southeast  Level Estimated
Wed 07:36:32 PM 23.9877 112.2597 122° Southeast  Level Estimated
Wed 07:37:32 PM 23.9469 112.3316 122° Southeast  Level Estimated
Wed 07:38:32 PM 23.9060 112.4036 122° Southeast  Level Estimated
Wed 07:39:32 PM 23.8651 112.4755 122° Southeast  Level Estimated
Wed 07:40:32 PM 23.8241 112.5473 122° Southeast  Level Estimated
Wed 07:41:32 PM 23.7832 112.6191 122° Southeast  Level Estimated
Wed 07:42:32 PM 23.7422 112.6909 122° Southeast  Level Estimated
Wed 07:43:32 PM 23.7011 112.7626 122° Southeast  Level Estimated
Wed 07:44:32 PM 23.6600 112.8343 122° Southeast  Level Estimated
Wed 07:45:32 PM 23.6189 112.9059 122° Southeast  Level Estimated
Wed 07:46:32 PM 23.5778 112.9775 122° Southeast  Level Estimated
Wed 07:47:32 PM 23.5366 113.0490 122° Southeast  Level Estimated
Wed 07:48:32 PM 23.4954 113.1205 122° Southeast  Level Estimated
Wed 07:49:32 PM 23.4542 113.1920 122° Southeast  Level Estimated
Wed 07:50:32 PM 23.4129 113.2634 122° Southeast  Level Estimated
Wed 07:51:32 PM 23.3716 113.3347 302° West  Level Estimated
Wed 07:52:32 PM 23.4129 113.2634 122° Southeast  Level Estimated
Wed 07:53:32 PM 23.3716 113.3347 302° West  Level Estimated
Wed 07:54:32 PM 23.4129 113.2634 122° Southeast  Level Estimated
Wed 07:55:32 PM 23.3716 113.3347 302° West  Level Estimated
Wed 07:56:32 PM 23.4129 113.2634 122° Southeast  Level Estimated
Wed 07:57:32 PM 23.3716 113.3347 302° West  Level Estimated
Wed 07:58:32 PM 23.4129 113.2634 122° Southeast  Level Estimated
Wed 07:59:32 PM 23.3716 113.3347 302° West  Level Estimated
Wed 08:00:32 PM 23.4129 113.2634 122° Southeast  Level Estimated
Wed 08:01:32 PM 23.3716 113.3347 302° West  Level Estimated
Wed 08:02:32 PM 23.4129 113.2634 122° Southeast  Level Estimated
Wed 08:03:32 PM 23.3716 113.3347 302° West  Level Estimated
Wed 08:04:32 PM 23.4129 113.2634 122° Southeast  Level Estimated
Wed 08:05:32 PM 23.3716 113.3347 302° West  Level Estimated
Wed 08:06:32 PM 23.4129 113.2634 302° West  Level Estimated

Login

Don't have an account? Register now (free) for customized features, flight alerts, and more!